Time;durP1;ratioP1;P1;durP2;ratioP2;P2;SDS_P1;SDS_P2;PMS_P1;PMS_P2;Temp;Humidity;BMP_temperature;BMP_pressure;BME280_temperature;BME280_humidity;BME280_pressure;Samples;Min_cycle;Max_cycle;Signal;HPM_P1;HPM_P2
2024/05/01 00:03:07;;;;;;;7.18;5.28;;;17.60;1.00;;;;;;10865428;27;20285;-86
2024/05/01 00:08:28;;;;;;;8.25;4.85;;;17.50;1.00;;;;;;10879234;27;20415;-86
2024/05/01 00:13:50;;;;;;;6.82;5.00;;;17.40;1.00;;;;;;10849601;27;20245;-86
2024/05/01 00:19:12;;;;;;;6.72;5.05;;;17.40;1.00;;;;;;10855464;27;20256;-85
2024/05/01 00:24:34;;;;;;;7.95;4.78;;;17.40;1.00;;;;;;10853282;27;20352;-83
2024/05/01 00:29:56;;;;;;;6.28;4.88;;;17.30;1.00;;;;;;10804464;27;20256;-87
2024/05/01 00:35:18;;;;;;;6.28;5.00;;;17.20;1.00;;;;;;10830288;27;20238;-87
2024/05/01 00:40:40;;;;;;;9.07;5.03;;;17.10;1.00;;;;;;10831062;27;20229;-86
2024/05/01 00:46:04;;;;;;;5.88;4.75;;;17.10;1.00;;;;;;10853085;27;20516;-87
2024/05/01 00:51:26;;;;;;;11.48;5.05;;;17.00;1.00;;;;;;10849490;27;20251;-86
2024/05/01 00:56:48;;;;;;;7.07;4.90;;;16.90;1.00;;;;;;10836084;27;20242;-86
2024/05/01 01:02:11;;;;;;;8.98;5.00;;;16.80;1.00;;;;;;10850987;27;20258;-85
2024/05/01 01:07:33;;;;;;;9.02;5.40;;;16.70;1.00;;;;;;10853494;27;20307;-85
2024/05/01 01:12:56;;;;;;;8.40;5.72;;;16.70;1.00;;;;;;10849843;27;20328;-85
2024/05/01 01:18:18;;;;;;;7.50;4.85;;;16.70;1.00;;;;;;10803079;27;20255;-84
2024/05/01 01:23:40;;;;;;;8.38;4.75;;;16.60;1.00;;;;;;10802176;27;20267;-87
2024/05/01 01:29:02;;;;;;;6.18;4.70;;;16.50;1.00;;;;;;10823025;27;20480;-87
2024/05/01 01:34:50;;;;;;;10.82;4.75;;;16.50;1.00;;;;;;10841956;27;20271;-86
2024/05/01 01:40:11;;;;;;;5.50;4.28;;;16.40;1.00;;;;;;10874508;27;20279;-86
2024/05/01 01:45:33;;;;;;;9.20;4.18;;;16.40;1.00;;;;;;10875659;27;20500;-86
2024/05/01 01:50:55;;;;;;;6.07;4.88;;;16.40;1.00;;;;;;10845837;27;20257;-84
2024/05/01 01:56:17;;;;;;;7.78;4.88;;;16.40;1.00;;;;;;10854623;27;20283;-87
2024/05/01 02:01:39;;;;;;;8.13;4.68;;;16.30;1.00;;;;;;10834220;27;20249;-87
2024/05/01 02:07:00;;;;;;;8.15;5.05;;;16.30;1.00;;;;;;10836295;27;20228;-87
2024/05/01 02:12:24;;;;;;;9.35;6.00;;;16.20;1.00;;;;;;10853200;27;20253;-86
2024/05/01 02:17:45;;;;;;;5.47;4.60;;;16.10;1.00;;;;;;10858500;27;20237;-84
2024/05/01 02:23:07;;;;;;;10.77;5.22;;;16.10;1.00;;;;;;10856841;27;20263;-85
2024/05/01 02:28:29;;;;;;;6.72;4.88;;;16.10;1.00;;;;;;10881926;27;20232;-84
2024/05/01 02:46:43;;;;;;;7.70;5.07;;;15.90;1.00;;;;;;10857565;27;20208;-85
2024/05/01 02:52:04;;;;;;;7.13;5.20;;;15.90;1.00;;;;;;10833283;27;20240;-86
2024/05/01 02:57:26;;;;;;;5.57;4.05;;;15.80;1.00;;;;;;10857552;27;20251;-86
2024/05/01 03:02:47;;;;;;;5.50;4.65;;;15.70;1.00;;;;;;10851436;27;20260;-87
2024/05/01 03:08:09;;;;;;;7.20;4.70;;;15.60;1.00;;;;;;10812615;27;20261;-86
2024/05/01 03:13:30;;;;;;;6.47;4.30;;;15.60;1.00;;;;;;10846577;27;20240;-86
2024/05/01 03:24:12;;;;;;;8.32;4.05;;;15.50;1.00;;;;;;10853788;27;20234;-85
2024/05/01 03:29:34;;;;;;;6.82;4.10;;;15.50;1.00;;;;;;10852727;27;20259;-85
2024/05/01 03:34:55;;;;;;;6.80;3.95;;;15.60;1.00;;;;;;10862793;27;20516;-85
2024/05/01 03:40:16;;;;;;;7.05;4.65;;;15.60;1.00;;;;;;10856925;27;20267;-85
2024/05/01 03:45:38;;;;;;;6.28;4.15;;;15.60;1.00;;;;;;10868356;27;20324;-86
2024/05/01 03:51:04;;;;;;;7.28;4.47;;;15.60;1.00;;;;;;10856793;27;20280;-88
2024/05/01 04:02:04;;;;;;;6.97;4.57;;;15.70;1.00;;;;;;10860345;27;20241;-83
2024/05/01 04:07:26;;;;;;;9.55;4.05;;;15.70;1.00;;;;;;10846258;27;20252;-86
2024/05/01 04:12:47;;;;;;;6.78;4.47;;;15.80;1.00;;;;;;10859198;27;20279;-84
2024/05/01 04:18:09;;;;;;;6.05;3.90;;;15.90;1.00;;;;;;10806764;27;20232;-85
2024/05/01 04:23:31;;;;;;;8.65;4.05;;;16.00;1.00;;;;;;10854602;27;20236;-83
2024/05/01 04:28:52;;;;;;;6.30;3.85;;;16.00;1.00;;;;;;10854934;27;20311;-84
2024/05/01 04:34:14;;;;;;;6.97;4.10;;;16.00;1.00;;;;;;10877434;27;20467;-85
2024/05/01 04:39:35;;;;;;;7.45;4.00;;;16.00;1.00;;;;;;10877943;27;20349;-85
2024/05/01 04:44:57;;;;;;;5.78;3.80;;;16.10;1.00;;;;;;10852991;27;20423;-85
2024/05/01 04:50:18;;;;;;;5.90;3.47;;;16.10;1.00;;;;;;10849602;27;20260;-84
2024/05/01 04:55:40;;;;;;;5.50;3.47;;;16.20;1.00;;;;;;10876489;27;20247;-84
2024/05/01 05:01:02;;;;;;;4.05;3.15;;;16.30;1.00;;;;;;10848553;27;20287;-85
2024/05/01 05:06:23;;;;;;;9.05;4.65;;;16.40;1.00;;;;;;10817774;27;20380;-84
2024/05/01 05:12:36;;;;;;;7.43;4.20;;;16.50;1.00;;;;;;10713989;27;20253;-84
2024/05/01 05:17:57;;;;;;;6.75;4.15;;;16.60;1.00;;;;;;10711206;27;20239;-84
2024/05/01 05:23:19;;;;;;;6.63;3.70;;;16.70;1.00;;;;;;10712064;27;20344;-85
2024/05/01 05:28:42;;;;;;;7.05;4.22;;;16.80;1.00;;;;;;10739222;27;20231;-85
2024/05/01 05:34:04;;;;;;;6.53;4.05;;;16.90;1.00;;;;;;10692067;27;20271;-84
2024/05/01 05:39:25;;;;;;;13.00;4.35;;;17.10;1.00;;;;;;10720256;27;20217;-83
2024/05/01 05:44:47;;;;;;;9.60;4.20;;;17.20;1.00;;;;;;10833269;27;20272;-83
2024/05/01 05:50:08;;;;;;;6.03;3.95;;;17.40;1.00;;;;;;10831487;27;20484;-83
2024/05/01 05:55:32;;;;;;;12.68;6.38;;;17.60;1.00;;;;;;10844586;27;20289;-86
2024/05/01 06:00:54;;;;;;;6.97;3.92;;;17.80;1.00;;;;;;10854171;27;20409;-83
2024/05/01 06:06:16;;;;;;;10.60;3.95;;;17.90;1.00;;;;;;10858275;27;20293;-83
2024/05/01 06:11:37;;;;;;;11.68;3.80;;;18.00;1.00;;;;;;10857476;27;20245;-85
2024/05/01 06:16:59;;;;;;;19.98;4.25;;;18.50;1.00;;;;;;10822572;27;20264;-85
2024/05/01 06:22:20;;;;;;;13.73;3.90;;;19.00;1.00;;;;;;10880955;27;20277;-85
2024/05/01 06:27:42;;;;;;;7.63;3.78;;;19.60;1.00;;;;;;10882134;27;20507;-85
2024/05/01 06:33:04;;;;;;;5.55;3.78;;;20.60;1.00;;;;;;10856687;27;20238;-84
2024/05/01 06:38:25;;;;;;;7.10;3.95;;;20.70;1.00;;;;;;10881225;27;20218;-85
2024/05/01 06:43:47;;;;;;;8.05;3.22;;;21.10;1.00;;;;;;10856614;27;20332;-85
2024/05/01 06:49:10;;;;;;;4.45;3.50;;;21.90;1.00;;;;;;10857555;27;20253;-84
2024/05/01 06:54:32;;;;;;;9.30;3.83;;;22.40;1.00;;;;;;10855957;27;20276;-87
2024/05/01 06:59:54;;;;;;;9.05;3.67;;;23.10;1.00;;;;;;10852885;27;20261;-87
2024/05/01 07:05:15;;;;;;;7.93;3.13;;;23.80;1.00;;;;;;10854377;27;20253;-88
2024/05/01 07:10:37;;;;;;;8.90;3.60;;;24.60;1.00;;;;;;10827433;27;20250;-87
2024/05/01 07:15:59;;;;;;;8.52;3.72;;;25.10;99.90;;;;;;10880916;27;20222;-87
2024/05/01 07:21:20;;;;;;;8.73;3.88;;;25.40;99.90;;;;;;10855371;27;20273;-84
2024/05/01 07:26:42;;;;;;;6.90;3.00;;;25.70;99.90;;;;;;10856631;27;20218;-85
2024/05/01 07:32:05;;;;;;;6.35;3.05;;;26.10;99.90;;;;;;10855621;27;20234;-83
2024/05/01 07:37:26;;;;;;;11.43;3.60;;;26.50;99.90;;;;;;10854833;27;20519;-87
2024/05/01 07:42:48;;;;;;;10.07;4.25;;;26.70;99.90;;;;;;10856471;27;20222;-87
2024/05/01 07:48:10;;;;;;;4.70;2.88;;;26.70;99.90;;;;;;10878327;27;20289;-87
2024/05/01 07:53:32;;;;;;;6.00;3.22;;;27.00;99.90;;;;;;10853953;27;20256;-86
2024/05/01 07:58:54;;;;;;;9.57;3.50;;;27.70;99.90;;;;;;10845146;27;20264;-85
2024/05/01 08:04:16;;;;;;;6.10;3.00;;;28.40;99.90;;;;;;10814641;27;20284;-88
2024/05/01 08:09:38;;;;;;;6.80;3.13;;;28.50;99.90;;;;;;10849346;27;20309;-86
2024/05/01 08:15:00;;;;;;;6.15;3.03;;;28.80;99.90;;;;;;10855487;27;20218;-86
2024/05/01 08:20:21;;;;;;;5.40;3.22;;;28.50;99.90;;;;;;10851729;27;20234;-86
2024/05/01 08:25:50;;;;;;;4.32;3.00;;;28.70;99.90;;;;;;10855236;27;20218;-86
2024/05/01 08:31:11;;;;;;;8.27;3.00;;;29.00;99.90;;;;;;10810492;27;20269;-87
2024/05/01 08:36:33;;;;;;;11.75;4.10;;;28.90;99.90;;;;;;10822020;27;20237;-85
2024/05/01 08:41:56;;;;;;;9.77;3.17;;;;;;;;;;10833610;27;20262;-85
2024/05/01 08:47:18;;;;;;;13.18;3.47;;;29.60;99.90;;;;;;10781961;27;20313;-86
2024/05/01 08:52:48;;;;;;;9.88;3.00;;;29.40;1.00;;;;;;10830998;27;20257;-86
2024/05/01 08:58:10;;;;;;;7.50;3.28;;;29.60;1.00;;;;;;10847783;27;20332;-86
2024/05/01 09:03:32;;;;;;;5.57;3.15;;;29.70;1.00;;;;;;10807962;27;20259;-87
2024/05/01 09:08:53;;;;;;;12.07;3.50;;;29.30;1.00;;;;;;10788801;27;20254;-86
2024/05/01 09:14:15;;;;;;;9.15;2.67;;;29.60;1.00;;;;;;10813722;27;20243;-86
2024/05/01 09:19:38;;;;;;;8.00;3.20;;;30.00;1.00;;;;;;10813533;27;20231;-85
2024/05/01 09:25:00;;;;;;;7.88;2.78;;;29.80;1.00;;;;;;10788887;27;20265;-86
2024/05/01 09:30:24;;;;;;;8.95;3.30;;;30.40;99.90;;;;;;10812815;27;20239;-87
2024/05/01 09:35:50;;;;;;;5.13;2.58;;;;;;;;;;10813882;27;20219;-84
2024/05/01 09:41:13;;;;;;;7.35;3.22;;;30.70;99.90;;;;;;10800840;27;20483;-86
2024/05/01 09:46:37;;;;;;;5.80;2.58;;;30.70;99.90;;;;;;10754574;27;20400;-86
2024/05/01 09:51:59;;;;;;;6.13;2.67;;;30.30;99.90;;;;;;10813145;27;20427;-85
2024/05/01 09:57:24;;;;;;;8.70;3.65;;;30.20;99.90;;;;;;10811523;27;20274;-87
2024/05/01 10:02:48;;;;;;;7.82;2.30;;;30.60;99.90;;;;;;10853183;27;20238;-85
2024/05/01 10:08:14;;;;;;;4.10;2.22;;;30.60;99.90;;;;;;10881036;27;20242;-86
2024/05/01 10:13:46;;;;;;;7.78;2.78;;;30.40;99.90;;;;;;10817321;27;20312;-84
2024/05/01 10:19:18;;;;;;;4.38;2.40;;;30.90;99.90;;;;;;10830936;27;20274;-86
2024/05/01 10:24:41;;;;;;;6.72;2.72;;;30.60;99.90;;;;;;10832643;27;20288;-85
2024/05/01 10:30:16;;;;;;;7.15;2.45;;;30.60;99.90;;;;;;10858590;27;20333;-86
2024/05/01 10:35:37;;;;;;;7.40;2.83;;;30.80;99.90;;;;;;10830441;27;20242;-86
2024/05/01 10:40:59;;;;;;;7.07;3.42;;;31.00;99.90;;;;;;10851635;27;20406;-86
2024/05/01 10:46:25;;;;;;;10.52;2.53;;;30.90;99.90;;;;;;10819654;27;20274;-86
2024/05/01 10:52:22;;;;;;;4.25;2.33;;;30.90;99.90;;;;;;10869440;27;20276;-85
2024/05/01 11:04:47;;;;;;;5.63;2.40;;;31.10;99.90;;;;;;10235217;27;20272;-86
2024/05/01 11:10:09;;;;;;;7.68;2.33;;;31.40;99.90;;;;;;10743703;27;20735;-85
2024/05/01 11:15:32;;;;;;;6.53;2.22;;;30.80;99.90;;;;;;10740563;27;20275;-86
2024/05/01 11:20:55;;;;;;;6.18;2.40;;;30.60;99.90;;;;;;10719295;27;20233;-87
2024/05/01 11:26:17;;;;;;;5.53;2.65;;;30.90;99.90;;;;;;10664359;27;20325;-86
2024/05/01 11:31:39;;;;;;;6.88;2.90;;;30.40;99.90;;;;;;10743417;27;20263;-86
2024/05/01 11:37:01;;;;;;;7.45;2.75;;;30.40;99.90;;;;;;10715768;27;20564;-85
2024/05/01 11:42:22;;;;;;;9.63;2.97;;;30.60;99.90;;;;;;10746473;27;20237;-85
2024/05/01 11:47:45;;;;;;;5.57;2.25;;;30.40;99.90;;;;;;10740765;27;20240;-84
2024/05/01 11:53:06;;;;;;;8.55;2.65;;;30.40;99.90;;;;;;10741995;27;20453;-85
2024/05/01 11:58:28;;;;;;;5.43;2.85;;;30.50;99.90;;;;;;10739686;27;20252;-85
2024/05/01 12:03:54;;;;;;;4.35;2.45;;;30.20;99.90;;;;;;10836420;27;20246;-85
2024/05/01 12:09:16;;;;;;;5.30;2.53;;;30.10;99.90;;;;;;10791729;27;20286;-85
2024/05/01 12:14:38;;;;;;;4.47;2.35;;;30.10;99.90;;;;;;10785885;27;20258;-85
2024/05/01 12:19:59;;;;;;;12.98;2.70;;;29.80;99.90;;;;;;10864895;27;20273;-85
2024/05/01 12:25:21;;;;;;;5.82;2.65;;;29.90;99.90;;;;;;10853054;27;20241;-85
2024/05/01 12:30:43;;;;;;;13.57;3.13;;;29.70;99.90;;;;;;10825151;27;20246;-85
2024/05/01 12:36:13;;;;;;;8.10;2.85;;;29.50;99.90;;;;;;10853317;27;20256;-85
2024/05/01 12:41:40;;;;;;;4.97;2.70;;;29.60;99.90;;;;;;10849131;27;20278;-86
2024/05/01 12:47:02;;;;;;;4.88;2.90;;;29.30;99.90;;;;;;10852816;27;20293;-85
2024/05/01 12:52:34;;;;;;;6.05;2.97;;;29.40;99.90;;;;;;10877827;27;20265;-85
2024/05/01 12:57:57;;;;;;;7.05;2.72;;;29.30;99.90;;;;;;10875055;27;20321;-86
2024/05/01 13:03:19;;;;;;;6.03;2.42;;;29.00;99.90;;;;;;10877040;27;20289;-86
2024/05/01 13:08:41;;;;;;;9.00;3.55;;;28.80;99.90;;;;;;10852440;27;20242;-87
2024/05/01 13:14:03;;;;;;;7.53;2.83;;;28.80;99.90;;;;;;10877393;27;20226;-84
2024/05/01 13:19:27;;;;;;;8.23;2.85;;;29.00;99.90;;;;;;10828887;27;20268;-86
2024/05/01 13:24:49;;;;;;;5.00;2.60;;;28.60;99.90;;;;;;10852757;27;20269;-86
2024/05/01 13:30:46;;;;;;;5.60;2.97;;;28.60;99.90;;;;;;10852174;27;20404;-85
2024/05/01 13:36:28;;;;;;;4.82;3.00;;;28.50;99.90;;;;;;10667517;27;20291;-86
2024/05/01 13:41:50;;;;;;;7.18;3.35;;;28.40;99.90;;;;;;10642560;27;20317;-87
2024/05/01 13:47:34;;;;;;;10.48;2.90;;;28.00;99.90;;;;;;10640774;27;20268;-85
2024/05/01 13:53:08;;;;;;;4.35;2.83;;;27.90;99.90;;;;;;10675597;27;20221;-85
2024/05/01 14:05:27;;;;;;;6.50;2.90;;;27.90;99.90;;;;;;10623845;27;20243;-85
2024/05/01 14:10:49;;;;;;;6.93;3.38;;;27.70;99.90;;;;;;10617977;27;20247;-86
2024/05/01 14:16:13;;;;;;;8.10;3.13;;;27.30;99.90;;;;;;10744179;27;20232;-86
2024/05/01 14:21:39;;;;;;;6.30;3.17;;;27.30;99.90;;;;;;10749038;27;20362;-86
2024/05/01 14:27:01;;;;;;;13.23;3.53;;;27.20;99.90;;;;;;10743242;27;20384;-86
2024/05/01 14:32:26;;;;;;;4.80;2.38;;;26.90;99.90;;;;;;10748758;27;20490;-86
2024/05/01 14:37:47;;;;;;;3.58;2.60;;;26.90;99.90;;;;;;10743395;27;20240;-84
2024/05/01 14:43:09;;;;;;;6.28;2.85;;;26.70;99.90;;;;;;10744529;27;20334;-86
2024/05/01 14:48:31;;;;;;;30.75;3.65;;;26.60;99.90;;;;;;10716833;27;20425;-85
2024/05/01 14:54:02;;;;;;;5.80;2.90;;;26.30;99.90;;;;;;10741316;27;20236;-86
2024/05/01 14:59:24;;;;;;;5.68;2.70;;;26.00;99.90;;;;;;10698803;27;20271;-85
2024/05/01 15:04:45;;;;;;;11.50;3.30;;;26.00;99.90;;;;;;10741932;27;20338;-86
2024/05/01 15:10:24;;;;;;;10.38;3.17;;;25.90;99.90;;;;;;10743648;27;20217;-85
2024/05/01 15:15:46;;;;;;;10.70;3.47;;;25.90;99.90;;;;;;10718858;27;20391;-84
2024/05/01 15:21:09;;;;;;;7.45;3.30;;;25.70;99.90;;;;;;10742086;27;20236;-85
2024/05/01 15:26:33;;;;;;;9.88;3.20;;;25.60;99.90;;;;;;10743590;27;20506;-86
2024/05/01 15:32:00;;;;;;;9.55;3.55;;;25.50;99.90;;;;;;10718684;27;20476;-86
2024/05/01 15:38:02;;;;;;;6.90;3.60;;;25.60;99.90;;;;;;10540841;28;20337;-86
2024/05/01 15:43:24;;;;;;;6.75;3.03;;;25.40;99.90;;;;;;10581036;27;20246;-87
2024/05/01 15:48:45;;;;;;;8.15;3.47;;;25.40;99.90;;;;;;10607125;28;20257;-84
2024/05/01 15:54:13;;;;;;;6.18;3.30;;;25.30;99.90;;;;;;10605133;27;20315;-85
2024/05/01 15:59:45;;;;;;;7.50;2.55;;;25.30;99.90;;;;;;10606325;28;20381;-86
2024/05/01 16:05:10;;;;;;;6.40;3.28;;;25.20;99.90;;;;;;10680154;27;20486;-87
2024/05/01 16:10:42;;;;;;;6.53;3.20;;;25.20;99.90;;;;;;10787008;27;20332;-84
2024/05/01 16:16:05;;;;;;;5.90;3.33;;;25.10;99.90;;;;;;10785423;27;20247;-84
2024/05/01 16:22:00;;;;;;;9.10;2.83;;;25.00;99.90;;;;;;10811752;27;20239;-86
2024/05/01 16:27:22;;;;;;;6.35;3.22;;;;;;;;;;10763982;27;20243;-86
2024/05/01 16:32:54;;;;;;;6.93;2.70;;;24.90;99.90;;;;;;10808999;27;20239;-86
2024/05/01 16:38:16;;;;;;;6.97;2.83;;;24.90;1.00;;;;;;10736655;27;20246;-85
2024/05/01 16:43:45;;;;;;;6.68;2.72;;;24.80;1.00;;;;;;10782425;27;20261;-86
2024/05/01 16:54:55;;;;;;;6.05;3.00;;;;;;;;;;10805774;27;20266;-85
2024/05/01 17:00:17;;;;;;;5.10;3.00;;;;;;;;;;10812390;27;20299;-86
2024/05/01 17:05:39;;;;;;;3.67;2.67;;;;;;;;;;10745706;27;20248;-87
2024/05/01 17:11:01;;;;;;;6.18;3.30;;;;;;;;;;10740136;27;20307;-85
2024/05/01 17:16:24;;;;;;;5.38;2.85;;;;;;;;;;10683966;27;20245;-85
2024/05/01 17:21:45;;;;;;;5.85;3.03;;;24.30;90.00;;;;;;10697843;27;20222;-85
2024/05/01 17:27:07;;;;;;;6.13;3.20;;;24.30;1.00;;;;;;10750104;27;20370;-86
2024/05/01 17:32:40;;;;;;;6.68;2.95;;;;;;;;;;10717850;27;20244;-85
2024/05/01 17:38:02;;;;;;;5.40;3.55;;;23.90;99.90;;;;;;10746673;27;20264;-85
2024/05/01 17:43:23;;;;;;;6.85;3.85;;;23.80;99.90;;;;;;10749081;27;20268;-85
2024/05/01 17:48:52;;;;;;;12.75;5.80;;;23.60;99.90;;;;;;10746324;27;20305;-85
2024/05/01 17:54:14;;;;;;;8.10;5.40;;;24.00;99.90;;;;;;10747410;27;20348;-86
2024/05/01 17:59:36;;;;;;;13.70;5.68;;;23.30;99.90;;;;;;10746048;27;20323;-85
2024/05/01 18:04:59;;;;;;;8.00;4.63;;;23.10;99.90;;;;;;10753533;27;20283;-85
2024/05/01 18:10:21;;;;;;;38.50;22.98;;;23.10;99.90;;;;;;10768541;27;20263;-85
2024/05/01 18:15:43;;;;;;;15.32;9.85;;;23.10;1.00;;;;;;10743180;27;20244;-86
2024/05/01 18:21:04;;;;;;;9.57;5.45;;;22.90;1.00;;;;;;10768040;27;20448;-86
2024/05/01 18:26:26;;;;;;;6.82;4.40;;;22.60;99.90;;;;;;10743920;27;20381;-85
2024/05/01 18:31:48;;;;;;;8.40;4.30;;;22.50;99.90;;;;;;10748529;27;20328;-85
2024/05/01 18:37:12;;;;;;;8.80;5.45;;;22.50;1.00;;;;;;10740620;27;20240;-85
2024/05/01 18:42:33;;;;;;;13.20;5.30;;;22.30;1.00;;;;;;10744185;27;20237;-85
2024/05/01 18:47:55;;;;;;;9.35;5.03;;;;;;;;;;10744169;27;20451;-84
2024/05/01 18:53:16;;;;;;;7.90;4.53;;;22.10;1.00;;;;;;10742941;27;20256;-85
2024/05/01 18:58:38;;;;;;;7.32;4.93;;;;;;;;;;10724959;27;20491;-85
2024/05/01 19:04:00;;;;;;;10.15;5.82;;;21.80;62.60;;;;;;10821478;27;20586;-85
2024/05/01 19:09:22;;;;;;;9.88;5.50;;;;;;;;;;10881327;27;20322;-84
2024/05/01 19:14:44;;;;;;;7.15;5.13;;;;;;;;;;10828066;27;20274;-85
2024/05/01 19:20:21;;;;;;;7.20;4.90;;;21.60;1.00;;;;;;10881129;27;20218;-84
2024/05/01 19:25:44;;;;;;;7.03;4.60;;;21.50;1.00;;;;;;10849564;27;20260;-84
2024/05/01 19:31:07;;;;;;;7.88;5.50;;;21.30;5.10;;;;;;10880973;27;20214;-86
2024/05/01 19:36:29;;;;;;;9.55;4.95;;;;;;;;;;10855591;27;20273;-86
2024/05/01 19:41:52;;;;;;;10.93;5.47;;;;;;;;;;10806148;27;20252;-85
2024/05/01 19:47:15;;;;;;;6.45;4.45;;;;;;;;;;10878272;27;20289;-85
2024/05/01 19:52:38;;;;;;;8.32;4.97;;;;;;;;;;10828861;27;20297;-86
2024/05/01 19:58:00;;;;;;;9.27;4.70;;;;;;;;;;10878650;27;20285;-86
2024/05/01 20:03:22;;;;;;;9.68;5.43;;;;;;;;;;10833070;27;20326;-86
2024/05/01 20:08:47;;;;;;;9.02;5.43;;;;;;;;;;10793832;27;20278;-85
2024/05/01 20:14:11;;;;;;;12.15;4.75;;;;;;;;;;10764567;27;20233;-86
2024/05/01 20:19:34;;;;;;;13.80;4.68;;;;;;;;;;10787199;27;20245;-85
2024/05/01 20:24:56;;;;;;;7.38;4.80;;;;;;;;;;10802384;27;20265;-86
2024/05/01 20:30:18;;;;;;;7.97;4.80;;;;;;;;;;10879227;27;20289;-86
2024/05/01 20:35:40;;;;;;;7.68;4.53;;;;;;;;;;10877779;27;20331;-86
2024/05/01 20:41:03;;;;;;;8.93;4.40;;;;;;;;;;10786516;27;20253;-86
2024/05/01 20:46:25;;;;;;;9.77;5.60;;;;;;;;;;10816558;27;20269;-85
2024/05/01 20:51:47;;;;;;;8.02;4.78;;;;;;;;;;10878673;27;20330;-86
2024/05/01 20:57:09;;;;;;;7.88;4.78;;;;;;;;;;10825594;27;20334;-85
2024/05/01 21:02:31;;;;;;;5.95;3.47;;;;;;;;;;10832708;27;20489;-86
2024/05/01 21:07:53;;;;;;;4.13;3.28;;;;;;;;;;10860042;27;20328;-87
2024/05/01 21:13:16;;;;;;;7.60;3.78;;;;;;;;;;10861468;27;20222;-86
2024/05/01 21:18:38;;;;;;;6.88;4.65;;;;;;;;;;10858848;27;20489;-85
2024/05/01 21:24:00;;;;;;;7.25;4.53;;;;;;;;;;10877441;27;20231;-85
2024/05/01 21:29:22;;;;;;;7.72;4.82;;;19.60;99.90;;;;;;10855626;27;20259;-85
2024/05/01 21:34:44;;;;;;;12.25;5.43;;;19.50;99.90;;;;;;10854498;27;20233;-85
2024/05/01 21:40:06;;;;;;;10.27;4.80;;;;;;;;;;10832999;27;20308;-85
2024/05/01 21:45:28;;;;;;;9.35;4.68;;;19.30;99.90;;;;;;10883305;27;20278;-85
2024/05/01 21:50:50;;;;;;;5.95;4.63;;;19.20;99.90;;;;;;10883236;27;20230;-85
2024/05/01 21:56:12;;;;;;;8.80;5.38;;;19.10;99.90;;;;;;10882202;27;20238;-86
2024/05/01 22:01:38;;;;;;;9.85;4.78;;;19.10;99.90;;;;;;10809117;27;20250;-86
2024/05/01 22:13:54;;;;;;;5.53;3.58;;;18.90;99.90;;;;;;10886750;27;20269;-85
2024/05/01 22:19:16;;;;;;;4.07;3.38;;;18.90;99.90;;;;;;10879601;27;20580;-87
2024/05/01 22:24:37;;;;;;;10.30;4.20;;;18.90;99.90;;;;;;10859075;27;20469;-86
2024/05/01 22:29:59;;;;;;;9.40;3.75;;;18.80;99.90;;;;;;10878980;27;20288;-87
2024/05/01 22:35:21;;;;;;;5.43;3.80;;;18.80;99.90;;;;;;10858160;27;20230;-84
2024/05/01 22:40:42;;;;;;;8.60;4.80;;;18.60;99.90;;;;;;10813012;27;20754;-85
2024/05/01 22:46:04;;;;;;;9.00;4.75;;;18.60;99.90;;;;;;10805201;27;20329;-85
2024/05/01 22:51:26;;;;;;;7.55;4.30;;;18.50;99.90;;;;;;10853103;27;20273;-85
2024/05/01 22:56:47;;;;;;;7.70;3.78;;;18.50;99.90;;;;;;10828630;27;20246;-84
2024/05/01 23:02:09;;;;;;;7.03;4.45;;;18.40;99.90;;;;;;10881025;27;20333;-87
2024/05/01 23:07:30;;;;;;;7.03;5.53;;;18.30;99.90;;;;;;10832604;27;20355;-87
2024/05/01 23:12:52;;;;;;;8.00;5.15;;;18.30;99.90;;;;;;10857762;27;20313;-86
2024/05/01 23:18:14;;;;;;;5.72;4.10;;;18.20;99.90;;;;;;10828263;27;20265;-87
2024/05/01 23:23:35;;;;;;;4.75;3.63;;;18.10;99.90;;;;;;10856378;27;20245;-86
2024/05/01 23:28:57;;;;;;;6.25;3.10;;;18.10;99.90;;;;;;10833517;27;20320;-86
2024/05/01 23:34:18;;;;;;;4.72;3.10;;;18.00;99.90;;;;;;10855636;27;20321;-86
2024/05/01 23:39:40;;;;;;;5.72;3.33;;;18.00;99.90;;;;;;10830072;27;20230;-87
2024/05/01 23:45:02;;;;;;;5.75;2.90;;;17.90;99.90;;;;;;10879552;27;20238;-86
2024/05/01 23:50:24;;;;;;;5.07;3.67;;;17.80;99.90;;;;;;10834075;27;20226;-86
2024/05/01 23:55:47;;;;;;;4.65;3.30;;;17.80;99.90;;;;;;10855339;27;20242;-85
